sensor_id;sensor_type;location;lat;lon;timestamp;P1;durP1;ratioP1;P2;durP2;ratioP2
50012;SDS011;35901;48.694;9.476;2022-08-21T00:01:35;45.20;;;9.27;;
50012;SDS011;35901;48.694;9.476;2022-08-21T00:04:07;27.20;;;9.53;;
50012;SDS011;35901;48.694;9.476;2022-08-21T00:06:34;23.43;;;7.40;;
50012;SDS011;35901;48.694;9.476;2022-08-21T00:09:01;68.77;;;10.83;;
50012;SDS011;35901;48.694;9.476;2022-08-21T00:11:28;16.10;;;6.43;;
50012;SDS011;35901;48.694;9.476;2022-08-21T00:13:54;6.53;;;5.80;;
50012;SDS011;35901;48.694;9.476;2022-08-21T00:16:20;7.37;;;6.77;;
50012;SDS011;35901;48.694;9.476;2022-08-21T00:18:46;8.13;;;7.43;;
50012;SDS011;35901;48.694;9.476;2022-08-21T00:21:12;8.60;;;7.90;;
50012;SDS011;35901;48.694;9.476;2022-08-21T00:23:38;10.53;;;8.33;;
50012;SDS011;35901;48.694;9.476;2022-08-21T00:26:04;8.83;;;8.13;;
50012;SDS011;35901;48.694;9.476;2022-08-21T00:28:30;9.00;;;8.20;;
50012;SDS011;35901;48.694;9.476;2022-08-21T00:30:57;8.70;;;7.90;;
50012;SDS011;35901;48.694;9.476;2022-08-21T00:33:23;10.30;;;9.23;;
50012;SDS011;35901;48.694;9.476;2022-08-21T00:35:49;10.30;;;9.30;;
50012;SDS011;35901;48.694;9.476;2022-08-21T00:38:15;10.37;;;8.93;;
50012;SDS011;35901;48.694;9.476;2022-08-21T00:40:46;10.50;;;9.40;;
50012;SDS011;35901;48.694;9.476;2022-08-21T00:43:18;13.27;;;9.47;;
50012;SDS011;35901;48.694;9.476;2022-08-21T00:45:46;12.60;;;10.67;;
50012;SDS011;35901;48.694;9.476;2022-08-21T00:48:12;11.23;;;10.13;;
50012;SDS011;35901;48.694;9.476;2022-08-21T00:50:40;11.60;;;10.40;;
50012;SDS011;35901;48.694;9.476;2022-08-21T00:53:11;9.87;;;8.87;;
50012;SDS011;35901;48.694;9.476;2022-08-21T00:55:38;13.37;;;9.20;;
50012;SDS011;35901;48.694;9.476;2022-08-21T00:58:05;11.53;;;8.87;;
50012;SDS011;35901;48.694;9.476;2022-08-21T01:00:34;28.10;;;10.00;;
50012;SDS011;35901;48.694;9.476;2022-08-21T01:03:05;23.50;;;9.30;;
50012;SDS011;35901;48.694;9.476;2022-08-21T01:05:44;10.60;;;8.40;;
50012;SDS011;35901;48.694;9.476;2022-08-21T01:08:11;31.07;;;10.10;;
50012;SDS011;35901;48.694;9.476;2022-08-21T01:10:39;38.80;;;11.53;;
50012;SDS011;35901;48.694;9.476;2022-08-21T01:13:06;13.10;;;10.10;;
50012;SDS011;35901;48.694;9.476;2022-08-21T01:15:36;14.07;;;10.13;;
50012;SDS011;35901;48.694;9.476;2022-08-21T01:18:04;12.87;;;10.30;;
50012;SDS011;35901;48.694;9.476;2022-08-21T01:20:33;11.93;;;10.23;;
50012;SDS011;35901;48.694;9.476;2022-08-21T01:23:00;46.77;;;10.10;;
50012;SDS011;35901;48.694;9.476;2022-08-21T01:25:28;178.97;;;11.97;;
50012;SDS011;35901;48.694;9.476;2022-08-21T01:27:54;59.90;;;9.37;;
50012;SDS011;35901;48.694;9.476;2022-08-21T01:30:22;58.07;;;10.40;;
50012;SDS011;35901;48.694;9.476;2022-08-21T01:32:50;123.37;;;10.13;;
50012;SDS011;35901;48.694;9.476;2022-08-21T01:35:18;34.47;;;8.40;;
50012;SDS011;35901;48.694;9.476;2022-08-21T01:37:44;11.40;;;8.83;;
50012;SDS011;35901;48.694;9.476;2022-08-21T01:40:11;10.20;;;9.10;;
50012;SDS011;35901;48.694;9.476;2022-08-21T01:42:38;13.07;;;9.53;;
50012;SDS011;35901;48.694;9.476;2022-08-21T01:45:04;13.20;;;9.50;;
50012;SDS011;35901;48.694;9.476;2022-08-21T01:47:32;12.07;;;9.80;;
50012;SDS011;35901;48.694;9.476;2022-08-21T01:49:58;10.67;;;9.57;;
50012;SDS011;35901;48.694;9.476;2022-08-21T01:52:24;20.07;;;8.70;;
50012;SDS011;35901;48.694;9.476;2022-08-21T01:54:50;32.73;;;10.50;;
50012;SDS011;35901;48.694;9.476;2022-08-21T01:57:15;87.83;;;10.47;;
50012;SDS011;35901;48.694;9.476;2022-08-21T01:59:42;91.07;;;10.93;;
50012;SDS011;35901;48.694;9.476;2022-08-21T02:02:07;44.27;;;10.13;;
50012;SDS011;35901;48.694;9.476;2022-08-21T02:04:33;11.37;;;9.30;;
50012;SDS011;35901;48.694;9.476;2022-08-21T02:06:59;11.87;;;9.73;;
50012;SDS011;35901;48.694;9.476;2022-08-21T02:09:26;20.80;;;10.60;;
50012;SDS011;35901;48.694;9.476;2022-08-21T02:11:52;25.60;;;10.00;;
50012;SDS011;35901;48.694;9.476;2022-08-21T02:14:18;24.77;;;11.00;;
50012;SDS011;35901;48.694;9.476;2022-08-21T02:16:44;16.57;;;9.53;;
50012;SDS011;35901;48.694;9.476;2022-08-21T02:19:11;10.33;;;9.23;;
50012;SDS011;35901;48.694;9.476;2022-08-21T02:21:39;47.40;;;11.27;;
50012;SDS011;35901;48.694;9.476;2022-08-21T02:24:05;101.43;;;12.40;;
50012;SDS011;35901;48.694;9.476;2022-08-21T02:26:31;170.93;;;14.07;;
50012;SDS011;35901;48.694;9.476;2022-08-21T02:28:57;156.20;;;11.97;;
50012;SDS011;35901;48.694;9.476;2022-08-21T02:31:22;95.00;;;10.77;;
50012;SDS011;35901;48.694;9.476;2022-08-21T02:33:49;55.67;;;9.40;;
50012;SDS011;35901;48.694;9.476;2022-08-21T02:36:16;42.53;;;9.03;;
50012;SDS011;35901;48.694;9.476;2022-08-21T02:38:42;36.17;;;9.30;;
50012;SDS011;35901;48.694;9.476;2022-08-21T02:41:11;9.90;;;6.93;;
50012;SDS011;35901;48.694;9.476;2022-08-21T02:43:39;22.13;;;7.57;;
50012;SDS011;35901;48.694;9.476;2022-08-21T02:46:08;32.77;;;8.93;;
50012;SDS011;35901;48.694;9.476;2022-08-21T02:48:35;45.93;;;9.07;;
50012;SDS011;35901;48.694;9.476;2022-08-21T02:51:09;16.33;;;7.70;;
50012;SDS011;35901;48.694;9.476;2022-08-21T02:53:37;23.70;;;9.20;;
50012;SDS011;35901;48.694;9.476;2022-08-21T02:56:05;53.20;;;10.50;;
50012;SDS011;35901;48.694;9.476;2022-08-21T02:58:43;47.37;;;10.10;;
50012;SDS011;35901;48.694;9.476;2022-08-21T03:01:17;52.37;;;10.00;;
50012;SDS011;35901;48.694;9.476;2022-08-21T03:03:43;53.90;;;10.73;;
50012;SDS011;35901;48.694;9.476;2022-08-21T03:06:12;16.93;;;8.97;;
50012;SDS011;35901;48.694;9.476;2022-08-21T03:08:40;17.67;;;8.57;;
50012;SDS011;35901;48.694;9.476;2022-08-21T03:11:06;27.30;;;9.57;;
50012;SDS011;35901;48.694;9.476;2022-08-21T03:13:33;18.70;;;9.27;;
50012;SDS011;35901;48.694;9.476;2022-08-21T03:15:58;11.03;;;7.87;;
50012;SDS011;35901;48.694;9.476;2022-08-21T03:18:24;12.37;;;10.30;;
50012;SDS011;35901;48.694;9.476;2022-08-21T03:20:50;11.00;;;9.10;;
50012;SDS011;35901;48.694;9.476;2022-08-21T03:23:16;10.47;;;8.77;;
50012;SDS011;35901;48.694;9.476;2022-08-21T03:25:43;21.57;;;10.73;;
50012;SDS011;35901;48.694;9.476;2022-08-21T03:28:11;19.83;;;10.63;;
50012;SDS011;35901;48.694;9.476;2022-08-21T03:30:41;17.33;;;10.63;;
50012;SDS011;35901;48.694;9.476;2022-08-21T03:33:07;11.80;;;9.23;;
50012;SDS011;35901;48.694;9.476;2022-08-21T03:35:33;10.83;;;9.10;;
50012;SDS011;35901;48.694;9.476;2022-08-21T03:37:58;11.17;;;8.10;;
50012;SDS011;35901;48.694;9.476;2022-08-21T03:40:24;95.87;;;13.00;;
50012;SDS011;35901;48.694;9.476;2022-08-21T03:42:50;60.60;;;10.60;;
50012;SDS011;35901;48.694;9.476;2022-08-21T03:45:17;82.53;;;14.50;;
50012;SDS011;35901;48.694;9.476;2022-08-21T03:48:17;7.97;;;7.27;;
50012;SDS011;35901;48.694;9.476;2022-08-21T03:50:37;87.87;;;10.40;;
50012;SDS011;35901;48.694;9.476;2022-08-21T03:53:06;111.23;;;9.80;;
50012;SDS011;35901;48.694;9.476;2022-08-21T03:55:35;51.23;;;9.30;;
50012;SDS011;35901;48.694;9.476;2022-08-21T03:58:02;121.77;;;12.23;;
50012;SDS011;35901;48.694;9.476;2022-08-21T04:00:28;77.30;;;11.40;;
50012;SDS011;35901;48.694;9.476;2022-08-21T04:02:54;13.00;;;7.40;;
50012;SDS011;35901;48.694;9.476;2022-08-21T04:05:20;28.57;;;7.87;;
50012;SDS011;35901;48.694;9.476;2022-08-21T04:07:58;30.50;;;7.87;;
50012;SDS011;35901;48.694;9.476;2022-08-21T04:10:29;67.40;;;9.00;;
50012;SDS011;35901;48.694;9.476;2022-08-21T04:12:57;66.37;;;9.57;;
50012;SDS011;35901;48.694;9.476;2022-08-21T04:15:24;39.17;;;8.90;;
50012;SDS011;35901;48.694;9.476;2022-08-21T04:17:51;49.83;;;10.00;;
50012;SDS011;35901;48.694;9.476;2022-08-21T04:20:17;76.67;;;10.53;;
50012;SDS011;35901;48.694;9.476;2022-08-21T04:22:44;18.27;;;7.47;;
50012;SDS011;35901;48.694;9.476;2022-08-21T04:25:11;25.93;;;8.40;;
50012;SDS011;35901;48.694;9.476;2022-08-21T04:27:37;18.77;;;7.90;;
50012;SDS011;35901;48.694;9.476;2022-08-21T04:30:05;12.23;;;8.47;;
50012;SDS011;35901;48.694;9.476;2022-08-21T04:32:32;8.80;;;7.90;;
50012;SDS011;35901;48.694;9.476;2022-08-21T04:34:58;19.13;;;8.67;;
50012;SDS011;35901;48.694;9.476;2022-08-21T04:37:25;17.70;;;9.17;;
50012;SDS011;35901;48.694;9.476;2022-08-21T04:39:50;13.43;;;7.97;;
50012;SDS011;35901;48.694;9.476;2022-08-21T04:42:16;12.77;;;8.53;;
50012;SDS011;35901;48.694;9.476;2022-08-21T04:44:42;8.57;;;7.87;;
50012;SDS011;35901;48.694;9.476;2022-08-21T04:47:07;8.13;;;7.50;;
50012;SDS011;35901;48.694;9.476;2022-08-21T04:49:33;14.37;;;8.47;;
50012;SDS011;35901;48.694;9.476;2022-08-21T04:51:59;9.17;;;7.33;;
50012;SDS011;35901;48.694;9.476;2022-08-21T04:54:26;7.50;;;6.90;;
50012;SDS011;35901;48.694;9.476;2022-08-21T04:56:56;7.83;;;7.10;;
50012;SDS011;35901;48.694;9.476;2022-08-21T04:59:33;18.03;;;8.10;;
50012;SDS011;35901;48.694;9.476;2022-08-21T05:02:03;20.17;;;8.30;;
50012;SDS011;35901;48.694;9.476;2022-08-21T05:04:31;6.40;;;5.90;;
50012;SDS011;35901;48.694;9.476;2022-08-21T05:06:59;7.37;;;6.67;;
50012;SDS011;35901;48.694;9.476;2022-08-21T05:09:29;8.47;;;7.53;;
50012;SDS011;35901;48.694;9.476;2022-08-21T05:11:55;8.47;;;7.57;;
50012;SDS011;35901;48.694;9.476;2022-08-21T05:14:21;7.33;;;6.73;;
50012;SDS011;35901;48.694;9.476;2022-08-21T05:16:47;6.70;;;6.20;;
50012;SDS011;35901;48.694;9.476;2022-08-21T05:19:12;6.80;;;6.30;;
50012;SDS011;35901;48.694;9.476;2022-08-21T05:21:40;6.03;;;5.50;;
50012;SDS011;35901;48.694;9.476;2022-08-21T05:24:07;5.57;;;5.07;;
50012;SDS011;35901;48.694;9.476;2022-08-21T05:26:33;5.70;;;5.20;;
50012;SDS011;35901;48.694;9.476;2022-08-21T05:29:01;4.50;;;4.20;;
50012;SDS011;35901;48.694;9.476;2022-08-21T05:31:28;4.77;;;3.93;;
50012;SDS011;35901;48.694;9.476;2022-08-21T05:33:53;3.87;;;3.67;;
50012;SDS011;35901;48.694;9.476;2022-08-21T05:36:20;4.37;;;3.97;;
50012;SDS011;35901;48.694;9.476;2022-08-21T05:38:45;4.13;;;3.83;;
50012;SDS011;35901;48.694;9.476;2022-08-21T05:41:11;3.57;;;3.27;;
50012;SDS011;35901;48.694;9.476;2022-08-21T05:43:37;3.70;;;3.40;;
50012;SDS011;35901;48.694;9.476;2022-08-21T05:46:03;3.10;;;2.90;;
50012;SDS011;35901;48.694;9.476;2022-08-21T05:48:30;3.40;;;2.70;;
50012;SDS011;35901;48.694;9.476;2022-08-21T05:50:56;2.77;;;2.57;;
50012;SDS011;35901;48.694;9.476;2022-08-21T05:53:22;2.63;;;2.43;;
50012;SDS011;35901;48.694;9.476;2022-08-21T05:55:50;2.87;;;2.60;;
50012;SDS011;35901;48.694;9.476;2022-08-21T05:58:18;2.90;;;2.60;;
50012;SDS011;35901;48.694;9.476;2022-08-21T06:00:45;2.77;;;2.57;;
50012;SDS011;35901;48.694;9.476;2022-08-21T06:03:13;2.80;;;2.60;;
50012;SDS011;35901;48.694;9.476;2022-08-21T06:05:46;2.80;;;2.20;;
50012;SDS011;35901;48.694;9.476;2022-08-21T06:08:13;2.20;;;2.10;;
50012;SDS011;35901;48.694;9.476;2022-08-21T06:10:41;2.33;;;2.23;;
50012;SDS011;35901;48.694;9.476;2022-08-21T06:13:07;2.50;;;2.30;;
50012;SDS011;35901;48.694;9.476;2022-08-21T06:15:34;2.20;;;2.00;;
50012;SDS011;35901;48.694;9.476;2022-08-21T06:18:00;2.27;;;2.10;;
50012;SDS011;35901;48.694;9.476;2022-08-21T06:20:25;2.30;;;2.20;;
50012;SDS011;35901;48.694;9.476;2022-08-21T06:22:52;2.20;;;2.10;;
50012;SDS011;35901;48.694;9.476;2022-08-21T06:25:17;2.23;;;2.13;;
50012;SDS011;35901;48.694;9.476;2022-08-21T06:27:44;2.37;;;2.20;;
50012;SDS011;35901;48.694;9.476;2022-08-21T06:30:10;2.40;;;2.30;;
50012;SDS011;35901;48.694;9.476;2022-08-21T06:32:37;2.50;;;2.30;;
50012;SDS011;35901;48.694;9.476;2022-08-21T06:35:03;2.90;;;2.20;;
50012;SDS011;35901;48.694;9.476;2022-08-21T06:37:29;2.23;;;2.03;;
50012;SDS011;35901;48.694;9.476;2022-08-21T06:39:56;2.53;;;2.33;;
50012;SDS011;35901;48.694;9.476;2022-08-21T06:42:22;2.57;;;2.40;;
50012;SDS011;35901;48.694;9.476;2022-08-21T06:44:48;2.90;;;2.20;;
50012;SDS011;35901;48.694;9.476;2022-08-21T06:47:14;2.57;;;2.20;;
50012;SDS011;35901;48.694;9.476;2022-08-21T06:49:40;3.13;;;2.10;;
50012;SDS011;35901;48.694;9.476;2022-08-21T06:52:09;2.50;;;2.27;;
50012;SDS011;35901;48.694;9.476;2022-08-21T06:54:36;2.37;;;2.10;;
50012;SDS011;35901;48.694;9.476;2022-08-21T06:57:03;2.20;;;2.00;;
50012;SDS011;35901;48.694;9.476;2022-08-21T06:59:29;2.73;;;1.77;;
50012;SDS011;35901;48.694;9.476;2022-08-21T07:01:57;2.40;;;1.90;;
50012;SDS011;35901;48.694;9.476;2022-08-21T07:04:23;2.63;;;1.73;;
50012;SDS011;35901;48.694;9.476;2022-08-21T07:06:49;1.90;;;1.80;;
50012;SDS011;35901;48.694;9.476;2022-08-21T07:09:15;2.07;;;1.83;;
50012;SDS011;35901;48.694;9.476;2022-08-21T07:11:41;1.80;;;1.70;;
50012;SDS011;35901;48.694;9.476;2022-08-21T07:14:07;2.40;;;1.90;;
50012;SDS011;35901;48.694;9.476;2022-08-21T07:16:33;2.20;;;2.03;;
50012;SDS011;35901;48.694;9.476;2022-08-21T07:18:58;1.90;;;1.80;;
50012;SDS011;35901;48.694;9.476;2022-08-21T07:21:24;3.63;;;1.97;;
50012;SDS011;35901;48.694;9.476;2022-08-21T07:23:50;2.90;;;2.03;;
50012;SDS011;35901;48.694;9.476;2022-08-21T07:26:18;1.90;;;1.80;;
50012;SDS011;35901;48.694;9.476;2022-08-21T07:28:46;2.00;;;1.90;;
50012;SDS011;35901;48.694;9.476;2022-08-21T07:31:13;2.00;;;1.90;;
50012;SDS011;35901;48.694;9.476;2022-08-21T07:33:41;1.73;;;1.63;;
50012;SDS011;35901;48.694;9.476;2022-08-21T07:36:08;1.93;;;1.83;;
50012;SDS011;35901;48.694;9.476;2022-08-21T07:38:33;3.20;;;2.03;;
50012;SDS011;35901;48.694;9.476;2022-08-21T07:41:00;2.83;;;1.90;;
50012;SDS011;35901;48.694;9.476;2022-08-21T07:43:27;3.63;;;2.10;;
50012;SDS011;35901;48.694;9.476;2022-08-21T07:45:54;1.97;;;1.80;;
50012;SDS011;35901;48.694;9.476;2022-08-21T07:48:22;2.97;;;2.30;;
50012;SDS011;35901;48.694;9.476;2022-08-21T07:50:48;4.10;;;2.00;;
50012;SDS011;35901;48.694;9.476;2022-08-21T07:53:16;3.20;;;2.03;;
50012;SDS011;35901;48.694;9.476;2022-08-21T07:55:41;2.73;;;1.83;;
50012;SDS011;35901;48.694;9.476;2022-08-21T07:58:07;4.73;;;2.43;;
50012;SDS011;35901;48.694;9.476;2022-08-21T08:00:33;3.30;;;2.27;;
50012;SDS011;35901;48.694;9.476;2022-08-21T08:02:59;2.63;;;2.20;;
50012;SDS011;35901;48.694;9.476;2022-08-21T08:05:27;2.93;;;2.10;;
50012;SDS011;35901;48.694;9.476;2022-08-21T08:07:54;4.00;;;2.10;;
50012;SDS011;35901;48.694;9.476;2022-08-21T08:10:21;2.33;;;2.07;;
50012;SDS011;35901;48.694;9.476;2022-08-21T08:12:47;3.87;;;2.20;;
50012;SDS011;35901;48.694;9.476;2022-08-21T08:15:17;4.87;;;2.50;;
50012;SDS011;35901;48.694;9.476;2022-08-21T08:17:45;2.87;;;2.50;;
50012;SDS011;35901;48.694;9.476;2022-08-21T08:20:12;3.50;;;2.40;;
50012;SDS011;35901;48.694;9.476;2022-08-21T08:22:40;3.57;;;2.33;;
50012;SDS011;35901;48.694;9.476;2022-08-21T08:25:06;3.20;;;2.17;;
50012;SDS011;35901;48.694;9.476;2022-08-21T08:27:33;5.47;;;2.80;;
50012;SDS011;35901;48.694;9.476;2022-08-21T08:29:59;3.53;;;2.77;;
50012;SDS011;35901;48.694;9.476;2022-08-21T08:32:24;3.50;;;2.40;;
50012;SDS011;35901;48.694;9.476;2022-08-21T08:34:51;4.90;;;2.73;;
50012;SDS011;35901;48.694;9.476;2022-08-21T08:37:17;3.20;;;2.77;;
50012;SDS011;35901;48.694;9.476;2022-08-21T08:39:44;2.83;;;2.37;;
50012;SDS011;35901;48.694;9.476;2022-08-21T08:42:43;3.87;;;2.67;;
50012;SDS011;35901;48.694;9.476;2022-08-21T08:45:12;3.00;;;2.50;;
50012;SDS011;35901;48.694;9.476;2022-08-21T08:47:45;3.67;;;2.60;;
50012;SDS011;35901;48.694;9.476;2022-08-21T08:50:17;3.70;;;2.80;;
50012;SDS011;35901;48.694;9.476;2022-08-21T08:52:49;5.27;;;2.80;;
50012;SDS011;35901;48.694;9.476;2022-08-21T08:55:21;6.30;;;3.10;;
50012;SDS011;35901;48.694;9.476;2022-08-21T08:57:51;4.13;;;2.90;;
50012;SDS011;35901;48.694;9.476;2022-08-21T09:00:20;5.20;;;3.03;;
50012;SDS011;35901;48.694;9.476;2022-08-21T09:02:47;8.10;;;3.50;;
50012;SDS011;35901;48.694;9.476;2022-08-21T09:05:23;4.37;;;3.00;;
50012;SDS011;35901;48.694;9.476;2022-08-21T09:08:09;4.00;;;3.27;;
50012;SDS011;35901;48.694;9.476;2022-08-21T09:11:02;4.77;;;3.30;;
50012;SDS011;35901;48.694;9.476;2022-08-21T09:16:15;3.47;;;3.10;;
50012;SDS011;35901;48.694;9.476;2022-08-21T09:21:40;3.87;;;3.00;;
50012;SDS011;35901;48.694;9.476;2022-08-21T09:24:29;4.97;;;3.13;;
50012;SDS011;35901;48.694;9.476;2022-08-21T09:29:52;3.87;;;3.10;;
50012;SDS011;35901;48.694;9.476;2022-08-21T09:32:20;4.47;;;3.30;;
50012;SDS011;35901;48.694;9.476;2022-08-21T09:34:55;5.00;;;2.97;;
50012;SDS011;35901;48.694;9.476;2022-08-21T09:37:25;6.23;;;3.60;;
50012;SDS011;35901;48.694;9.476;2022-08-21T09:39:54;4.13;;;3.20;;
50012;SDS011;35901;48.694;9.476;2022-08-21T09:42:27;5.53;;;3.20;;
50012;SDS011;35901;48.694;9.476;2022-08-21T09:45:10;4.20;;;3.17;;
50012;SDS011;35901;48.694;9.476;2022-08-21T09:47:39;3.73;;;2.97;;
50012;SDS011;35901;48.694;9.476;2022-08-21T09:50:09;4.10;;;3.10;;
50012;SDS011;35901;48.694;9.476;2022-08-21T09:52:42;3.73;;;3.07;;
50012;SDS011;35901;48.694;9.476;2022-08-21T09:55:15;5.00;;;3.70;;
50012;SDS011;35901;48.694;9.476;2022-08-21T09:58:18;3.30;;;3.00;;
50012;SDS011;35901;48.694;9.476;2022-08-21T10:00:45;4.37;;;2.80;;
50012;SDS011;35901;48.694;9.476;2022-08-21T10:03:21;5.37;;;3.33;;
50012;SDS011;35901;48.694;9.476;2022-08-21T10:06:19;3.80;;;3.23;;
50012;SDS011;35901;48.694;9.476;2022-08-21T10:08:45;4.07;;;3.07;;
50012;SDS011;35901;48.694;9.476;2022-08-21T10:11:15;3.67;;;3.07;;
50012;SDS011;35901;48.694;9.476;2022-08-21T10:19:45;5.40;;;3.60;;
50012;SDS011;35901;48.694;9.476;2022-08-21T10:30:29;7.27;;;3.27;;
50012;SDS011;35901;48.694;9.476;2022-08-21T10:35:42;6.77;;;3.30;;
50012;SDS011;35901;48.694;9.476;2022-08-21T10:41:15;4.73;;;2.73;;
50012;SDS011;35901;48.694;9.476;2022-08-21T10:49:21;4.90;;;2.60;;
50012;SDS011;35901;48.694;9.476;2022-08-21T10:52:11;5.30;;;3.10;;
50012;SDS011;35901;48.694;9.476;2022-08-21T10:55:14;3.20;;;2.80;;
50012;SDS011;35901;48.694;9.476;2022-08-21T10:57:54;4.50;;;2.80;;
50012;SDS011;35901;48.694;9.476;2022-08-21T11:03:13;4.03;;;2.60;;
50012;SDS011;35901;48.694;9.476;2022-08-21T11:08:41;4.60;;;2.70;;
50012;SDS011;35901;48.694;9.476;2022-08-21T11:11:12;6.27;;;2.73;;
50012;SDS011;35901;48.694;9.476;2022-08-21T11:17:09;4.57;;;2.40;;
50012;SDS011;35901;48.694;9.476;2022-08-21T11:19:40;3.53;;;2.67;;
50012;SDS011;35901;48.694;9.476;2022-08-21T11:22:22;5.63;;;2.60;;
50012;SDS011;35901;48.694;9.476;2022-08-21T11:28:08;4.05;;;2.90;;
50012;SDS011;35901;48.694;9.476;2022-08-21T11:30:52;4.00;;;2.53;;
50012;SDS011;35901;48.694;9.476;2022-08-21T11:36:22;5.13;;;2.80;;
50012;SDS011;35901;48.694;9.476;2022-08-21T11:39:15;3.83;;;2.73;;
50012;SDS011;35901;48.694;9.476;2022-08-21T11:41:52;3.83;;;3.00;;
50012;SDS011;35901;48.694;9.476;2022-08-21T11:44:33;4.03;;;2.67;;
50012;SDS011;35901;48.694;9.476;2022-08-21T11:50:22;3.63;;;2.70;;
50012;SDS011;35901;48.694;9.476;2022-08-21T11:52:54;3.90;;;2.97;;
50012;SDS011;35901;48.694;9.476;2022-08-21T11:55:38;3.28;;;2.75;;
50012;SDS011;35901;48.694;9.476;2022-08-21T11:58:12;3.50;;;2.60;;
50012;SDS011;35901;48.694;9.476;2022-08-21T12:00:58;5.28;;;3.40;;
50012;SDS011;35901;48.694;9.476;2022-08-21T12:03:38;5.30;;;2.87;;
50012;SDS011;35901;48.694;9.476;2022-08-21T12:06:11;4.53;;;2.67;;
50012;SDS011;35901;48.694;9.476;2022-08-21T12:08:42;3.83;;;2.60;;
50012;SDS011;35901;48.694;9.476;2022-08-21T12:13:56;4.53;;;2.77;;
50012;SDS011;35901;48.694;9.476;2022-08-21T12:16:35;6.30;;;3.03;;
50012;SDS011;35901;48.694;9.476;2022-08-21T12:19:03;3.80;;;2.90;;
50012;SDS011;35901;48.694;9.476;2022-08-21T12:21:29;3.30;;;2.73;;
50012;SDS011;35901;48.694;9.476;2022-08-21T12:24:03;5.20;;;3.20;;
50012;SDS011;35901;48.694;9.476;2022-08-21T12:26:54;3.10;;;2.53;;
50012;SDS011;35901;48.694;9.476;2022-08-21T12:29:26;3.60;;;2.70;;
50012;SDS011;35901;48.694;9.476;2022-08-21T12:31:57;3.17;;;2.60;;
50012;SDS011;35901;48.694;9.476;2022-08-21T12:34:32;4.80;;;2.77;;
50012;SDS011;35901;48.694;9.476;2022-08-21T12:39:50;4.57;;;2.73;;
50012;SDS011;35901;48.694;9.476;2022-08-21T12:42:53;4.63;;;2.87;;
50012;SDS011;35901;48.694;9.476;2022-08-21T12:45:31;4.05;;;2.67;;
50012;SDS011;35901;48.694;9.476;2022-08-21T12:51:06;4.10;;;3.00;;
50012;SDS011;35901;48.694;9.476;2022-08-21T12:56:10;4.90;;;2.70;;
50012;SDS011;35901;48.694;9.476;2022-08-21T12:58:39;4.17;;;2.67;;
50012;SDS011;35901;48.694;9.476;2022-08-21T13:01:17;3.73;;;2.53;;
50012;SDS011;35901;48.694;9.476;2022-08-21T13:03:49;3.53;;;2.50;;
50012;SDS011;35901;48.694;9.476;2022-08-21T13:06:17;2.70;;;2.38;;
50012;SDS011;35901;48.694;9.476;2022-08-21T13:08:45;2.45;;;2.25;;
50012;SDS011;35901;48.694;9.476;2022-08-21T13:11:15;4.03;;;2.50;;
50012;SDS011;35901;48.694;9.476;2022-08-21T13:13:42;3.33;;;2.28;;
50012;SDS011;35901;48.694;9.476;2022-08-21T13:16:13;2.53;;;2.33;;
50012;SDS011;35901;48.694;9.476;2022-08-21T13:18:56;4.77;;;2.60;;
50012;SDS011;35901;48.694;9.476;2022-08-21T13:21:28;3.37;;;2.60;;
50012;SDS011;35901;48.694;9.476;2022-08-21T13:24:06;3.53;;;2.70;;
50012;SDS011;35901;48.694;9.476;2022-08-21T13:26:39;2.33;;;2.13;;
50012;SDS011;35901;48.694;9.476;2022-08-21T13:29:06;2.60;;;2.40;;
50012;SDS011;35901;48.694;9.476;2022-08-21T13:31:40;2.63;;;2.43;;
50012;SDS011;35901;48.694;9.476;2022-08-21T13:34:12;2.83;;;2.23;;
50012;SDS011;35901;48.694;9.476;2022-08-21T13:36:41;3.10;;;2.20;;
50012;SDS011;35901;48.694;9.476;2022-08-21T13:39:08;2.60;;;2.17;;
50012;SDS011;35901;48.694;9.476;2022-08-21T13:41:37;2.95;;;2.55;;
50012;SDS011;35901;48.694;9.476;2022-08-21T13:46:39;3.13;;;2.25;;
50012;SDS011;35901;48.694;9.476;2022-08-21T13:49:06;2.88;;;2.58;;
50012;SDS011;35901;48.694;9.476;2022-08-21T13:51:33;2.88;;;2.45;;
50012;SDS011;35901;48.694;9.476;2022-08-21T13:54:00;2.87;;;2.30;;
50012;SDS011;35901;48.694;9.476;2022-08-21T13:56:41;2.83;;;2.20;;
50012;SDS011;35901;48.694;9.476;2022-08-21T13:59:08;2.70;;;2.33;;
50012;SDS011;35901;48.694;9.476;2022-08-21T14:01:37;3.67;;;2.40;;
50012;SDS011;35901;48.694;9.476;2022-08-21T14:04:18;2.67;;;2.30;;
50012;SDS011;35901;48.694;9.476;2022-08-21T14:06:50;3.70;;;2.50;;
50012;SDS011;35901;48.694;9.476;2022-08-21T14:09:39;3.13;;;2.28;;
50012;SDS011;35901;48.694;9.476;2022-08-21T14:12:12;2.80;;;2.10;;
50012;SDS011;35901;48.694;9.476;2022-08-21T14:14:49;2.53;;;2.20;;
50012;SDS011;35901;48.694;9.476;2022-08-21T14:20:12;3.53;;;2.30;;
50012;SDS011;35901;48.694;9.476;2022-08-21T14:22:54;2.27;;;2.07;;
50012;SDS011;35901;48.694;9.476;2022-08-21T14:27:56;4.20;;;2.30;;
50012;SDS011;35901;48.694;9.476;2022-08-21T14:30:42;2.50;;;2.30;;
50012;SDS011;35901;48.694;9.476;2022-08-21T14:33:09;3.13;;;2.20;;
50012;SDS011;35901;48.694;9.476;2022-08-21T14:35:37;2.88;;;2.25;;
50012;SDS011;35901;48.694;9.476;2022-08-21T14:38:10;3.33;;;1.93;;
50012;SDS011;35901;48.694;9.476;2022-08-21T14:40:41;2.67;;;2.40;;
50012;SDS011;35901;48.694;9.476;2022-08-21T14:43:08;2.40;;;2.20;;
50012;SDS011;35901;48.694;9.476;2022-08-21T14:45:35;2.83;;;2.35;;
50012;SDS011;35901;48.694;9.476;2022-08-21T14:48:03;2.67;;;2.40;;
50012;SDS011;35901;48.694;9.476;2022-08-21T14:50:29;3.05;;;2.15;;
50012;SDS011;35901;48.694;9.476;2022-08-21T14:52:55;2.45;;;2.22;;
50012;SDS011;35901;48.694;9.476;2022-08-21T14:55:21;3.17;;;2.22;;
50012;SDS011;35901;48.694;9.476;2022-08-21T14:57:48;2.42;;;2.22;;
50012;SDS011;35901;48.694;9.476;2022-08-21T15:00:19;3.20;;;2.17;;
50012;SDS011;35901;48.694;9.476;2022-08-21T15:02:50;2.25;;;1.88;;
50012;SDS011;35901;48.694;9.476;2022-08-21T15:05:16;2.53;;;2.13;;
50012;SDS011;35901;48.694;9.476;2022-08-21T15:07:42;2.45;;;2.22;;
50012;SDS011;35901;48.694;9.476;2022-08-21T15:10:09;2.30;;;2.10;;
50012;SDS011;35901;48.694;9.476;2022-08-21T15:12:36;2.72;;;2.17;;
50012;SDS011;35901;48.694;9.476;2022-08-21T15:15:04;3.15;;;2.30;;
50012;SDS011;35901;48.694;9.476;2022-08-21T15:17:30;2.75;;;2.40;;
50012;SDS011;35901;48.694;9.476;2022-08-21T15:19:56;2.22;;;1.95;;
50012;SDS011;35901;48.694;9.476;2022-08-21T15:22:22;2.15;;;2.00;;
50012;SDS011;35901;48.694;9.476;2022-08-21T15:24:47;2.20;;;2.00;;
50012;SDS011;35901;48.694;9.476;2022-08-21T15:27:13;2.50;;;2.30;;
50012;SDS011;35901;48.694;9.476;2022-08-21T15:29:41;2.20;;;2.00;;
50012;SDS011;35901;48.694;9.476;2022-08-21T15:34:47;2.35;;;2.15;;
50012;SDS011;35901;48.694;9.476;2022-08-21T15:37:13;4.35;;;2.25;;
50012;SDS011;35901;48.694;9.476;2022-08-21T15:39:39;2.92;;;2.42;;
50012;SDS011;35901;48.694;9.476;2022-08-21T15:42:05;4.25;;;2.50;;
50012;SDS011;35901;48.694;9.476;2022-08-21T15:44:31;2.63;;;2.42;;
50012;SDS011;35901;48.694;9.476;2022-08-21T15:46:57;2.50;;;2.30;;
50012;SDS011;35901;48.694;9.476;2022-08-21T15:49:24;2.65;;;2.30;;
50012;SDS011;35901;48.694;9.476;2022-08-21T15:51:50;2.90;;;2.40;;
50012;SDS011;35901;48.694;9.476;2022-08-21T15:54:16;2.20;;;2.00;;
50012;SDS011;35901;48.694;9.476;2022-08-21T15:56:43;2.30;;;2.10;;
50012;SDS011;35901;48.694;9.476;2022-08-21T15:59:14;2.45;;;2.22;;
50012;SDS011;35901;48.694;9.476;2022-08-21T16:01:42;3.28;;;2.22;;
50012;SDS011;35901;48.694;9.476;2022-08-21T16:04:09;2.58;;;2.20;;
50012;SDS011;35901;48.694;9.476;2022-08-21T16:06:36;2.70;;;2.50;;
50012;SDS011;35901;48.694;9.476;2022-08-21T16:09:02;2.60;;;2.40;;
50012;SDS011;35901;48.694;9.476;2022-08-21T16:11:28;2.33;;;2.13;;